Terminal Aerodrome Forecast
Issued by NWS

Home | Current Version | Previous Version | Text Only | Print | Product List | Glossary On
Versions: 1 2 3 4 5 6 7 8 9 10 11 12 13 14 15 16 17 18 19 20 21 22 23 24 25 26 27 28 29 30 31 32 33 34 35 36 37 38 39 40 41 42 43 44 45 46 47 48 49 50
000
FTUS44 KHGX 052024 AAA
TAFUTS
TAF AMD
KUTS 052024Z 0520/0618 31006KT 6SM -DZ BR OVC003
      TEMPO 0520/0524 1SM -DZ BR
     FM060300 29004KT P6SM SCT007 BKN015
     FM060800 21003KT P6SM MIFG FEW015
     FM061400 22003KT P6SM SKC=

USA.gov is the U.S. government's official web portal to all federal, state and local government web resources and services.